Mount Auburn, IA (52313)

6:48 AM CDT on July 26, 2016 (GMT -0500)
La Porte City | | Change Station

Elev 823 ft 42.32 °N, 92.18 °W | Updated 0 second ago

Fog
Fog
62.8 °F
Feels Like 62.8 °F
N
0.0
Wind Variable Wind from ESE
Gusts 0.0 mph

Today
High -- | Low -- °F
--% Chance of Precip.
Yesterday
High -- | Low -- °F
Precip. -- in
Pressure 30.10 in
Visibility 0.5 miles
Clouds Mostly Cloudy 4900 ft
Dew Point 60 °F
Humidity 89%
Rainfall 0.00 in
Snow Depth Not available.
5:56 AM 8:33 PM
Waning Gibbous, 55% visible
METAR KVTI 261135Z AUTO 00000KT 1/2SM FG BKN049 17/16 A3010 RMK AO2
Pressure 30.10 in
Visibility 0.5 miles
Clouds Mostly Cloudy 4900 ft
Dew Point 60 °F
Humidity 89%
Rainfall 0.00 in
Snow Depth Not available.
5:56 AM 8:33 PM
Waning Gibbous, 55% visible
METAR KVTI 261135Z AUTO 00000KT 1/2SM FG BKN049 17/16 A3010 RMK AO2

10-Day Weather Forecast

Almanac

Astronomy

Jul. 26, 2016 Rise Set
Actual Time
Civil Twilight
Nautical Twilight
Astronomical Twilight
Moon
Length of Visible Light
Length of Day
Tomorrow will be .
, % of the Moon is Illuminated

Today's Extremes

State Highs State Lows

Community

WunderPhotos

Upload Photos

1,927,577 photos uploaded!

WunderBlog® & News

Nearby

Air Quality

  Air Quality AQ Index Pollutant
Not available.

Snow Depth

Station Depth Elevation

Earthquake Activity

City Distance Mag. Time & Date
Minimum magnitude displayed is 2.5.

Coastal Water Temperatures

Place Temperature

Stations

Nearby Weather Stations

Station Location Temp. Windchill Dew Point Humidity Wind Precip. Elev Updated Type
                   

Watches & Warnings

There are currently no watches in effect.